Time;durP1;ratioP1;P1;durP2;ratioP2;P2;SDS_P1;SDS_P2;PMS_P1;PMS_P2;Temp;Humidity;BMP_temperature;BMP_pressure;BME280_temperature;BME280_humidity;BME280_pressure;Samples;Min_cycle;Max_cycle;Signal;HPM_P1;HPM_P2
2023/12/17 00:00:39;;;;;;;;;;;22.20;35.30;;;;;;5013177;28;19940;-57
2023/12/17 00:03:06;;;;;;;;;;;22.10;35.30;;;;;;5013636;28;20591;-57
2023/12/17 00:05:47;;;;;;;;;;;22.10;35.30;;;;;;5013147;28;19972;-58
2023/12/17 00:08:19;;;;;;;;;;;22.10;35.30;;;;;;5013329;28;19975;-57
2023/12/17 00:10:48;;;;;;;;;;;22.10;35.30;;;;;;5013472;28;19937;-57
2023/12/17 00:13:15;;;;;;;;;;;22.10;35.30;;;;;;5013475;28;19991;-57
2023/12/17 00:15:42;;;;;;;;;;;22.10;35.30;;;;;;5013286;28;20387;-57
2023/12/17 00:18:11;;;;;;;;;;;22.10;35.30;;;;;;5013201;28;20434;-57
2023/12/17 00:20:38;;;;;;;;;;;22.10;35.30;;;;;;5012985;28;19926;-57
2023/12/17 00:23:05;;;;;;;;;;;22.10;35.30;;;;;;5013201;28;19952;-57
2023/12/17 00:25:32;;;;;;;;;;;22.10;35.30;;;;;;5013181;28;19926;-57
2023/12/17 00:27:59;;;;;;;;;;;22.10;35.40;;;;;;5012942;28;19975;-57
2023/12/17 00:30:26;;;;;;;;;;;22.10;35.40;;;;;;5013316;28;20334;-57
2023/12/17 00:32:53;;;;;;;;;;;22.10;35.40;;;;;;5012923;28;20465;-57
2023/12/17 00:35:20;;;;;;;;;;;22.00;35.30;;;;;;5013006;28;19932;-58
2023/12/17 00:37:47;;;;;;;;;;;22.10;35.30;;;;;;5015603;28;20012;-57
2023/12/17 00:40:14;;;;;;;;;;;22.10;35.30;;;;;;5016914;28;19971;-57
2023/12/17 00:42:41;;;;;;;;;;;22.10;35.30;;;;;;5016645;28;19977;-57
2023/12/17 00:45:08;;;;;;;;;;;22.10;35.30;;;;;;5016822;28;19932;-58
2023/12/17 00:47:35;;;;;;;;;;;22.10;35.30;;;;;;5016660;28;19936;-57
2023/12/17 00:50:03;;;;;;;;;;;22.10;35.30;;;;;;4999372;28;20004;-57
2023/12/17 00:52:31;;;;;;;;;;;22.10;35.30;;;;;;5016801;28;19925;-58
2023/12/17 00:54:58;;;;;;;;;;;22.10;35.30;;;;;;5016671;28;19965;-57
2023/12/17 00:57:25;;;;;;;;;;;22.10;35.30;;;;;;4999149;28;19983;-57
2023/12/17 00:59:52;;;;;;;;;;;22.10;35.30;;;;;;4999046;28;19931;-57
2023/12/17 01:02:19;;;;;;;;;;;22.10;35.30;;;;;;4998808;28;19925;-57
2023/12/17 01:04:46;;;;;;;;;;;22.00;35.30;;;;;;5015999;28;20374;-57
2023/12/17 01:07:13;;;;;;;;;;;22.10;35.30;;;;;;5016292;28;20395;-57
2023/12/17 01:09:40;;;;;;;;;;;22.00;35.30;;;;;;5016363;28;19925;-57
2023/12/17 01:12:07;;;;;;;;;;;22.00;35.30;;;;;;5016171;28;20031;-57
2023/12/17 01:14:34;;;;;;;;;;;22.00;35.30;;;;;;5016026;28;19933;-57
2023/12/17 01:17:03;;;;;;;;;;;22.00;35.30;;;;;;5015967;28;19925;-57
2023/12/17 01:19:30;;;;;;;;;;;22.00;35.30;;;;;;5015881;28;20401;-57
2023/12/17 01:21:59;;;;;;;;;;;22.00;35.30;;;;;;5015812;28;20029;-57
2023/12/17 01:24:26;;;;;;;;;;;22.00;35.30;;;;;;5015638;28;20004;-58
2023/12/17 01:26:53;;;;;;;;;;;22.00;35.70;;;;;;5016118;28;19925;-57
2023/12/17 01:29:20;;;;;;;;;;;22.00;35.40;;;;;;5016229;28;19929;-57
2023/12/17 01:31:47;;;;;;;;;;;22.00;35.40;;;;;;5015856;28;19972;-57
2023/12/17 01:34:14;;;;;;;;;;;22.00;35.40;;;;;;5015889;28;20350;-57
2023/12/17 01:36:41;;;;;;;;;;;22.00;35.30;;;;;;5015955;28;19991;-57
2023/12/17 01:39:09;;;;;;;;;;;22.00;35.30;;;;;;5015791;28;20008;-57
2023/12/17 01:41:37;;;;;;;;;;;22.00;35.30;;;;;;5015417;28;19925;-57
2023/12/17 01:44:04;;;;;;;;;;;22.00;35.30;;;;;;5015664;28;19930;-57
2023/12/17 01:46:31;;;;;;;;;;;22.00;35.30;;;;;;5015699;28;19926;-57
2023/12/17 01:48:58;;;;;;;;;;;22.00;35.30;;;;;;5014453;28;19980;-57
2023/12/17 01:51:26;;;;;;;;;;;22.00;35.30;;;;;;4997915;28;20302;-57
2023/12/17 01:53:53;;;;;;;;;;;22.00;35.30;;;;;;5015374;28;19932;-57
2023/12/17 01:56:21;;;;;;;;;;;22.00;35.30;;;;;;5015310;28;19932;-58
2023/12/17 01:58:48;;;;;;;;;;;22.00;35.30;;;;;;5015255;28;20387;-57
2023/12/17 02:01:15;;;;;;;;;;;22.00;35.30;;;;;;5015301;28;19925;-57
2023/12/17 02:03:43;;;;;;;;;;;22.00;35.40;;;;;;4997771;28;19925;-57
2023/12/17 02:06:10;;;;;;;;;;;22.00;35.30;;;;;;5014928;28;20113;-57
2023/12/17 02:08:38;;;;;;;;;;;21.90;35.30;;;;;;5014678;28;20363;-57
2023/12/17 02:11:05;;;;;;;;;;;21.90;35.30;;;;;;5015161;28;19926;-56
2023/12/17 02:13:32;;;;;;;;;;;21.90;35.30;;;;;;5015187;28;20004;-57
2023/12/17 02:15:59;;;;;;;;;;;21.90;35.30;;;;;;5014803;28;19976;-57
2023/12/17 02:18:26;;;;;;;;;;;21.90;35.30;;;;;;4997709;28;19935;-57
2023/12/17 02:20:53;;;;;;;;;;;21.90;35.30;;;;;;5014559;28;19925;-58
2023/12/17 02:23:21;;;;;;;;;;;21.90;35.30;;;;;;5014529;28;19932;-57
2023/12/17 02:25:48;;;;;;;;;;;21.90;35.30;;;;;;5014938;28;19972;-57
2023/12/17 02:28:15;;;;;;;;;;;21.90;35.40;;;;;;5014582;28;19926;-57
2023/12/17 02:30:42;;;;;;;;;;;21.90;35.30;;;;;;5014746;28;19979;-58
2023/12/17 02:33:09;;;;;;;;;;;21.90;35.40;;;;;;5014872;28;19973;-58
2023/12/17 02:35:36;;;;;;;;;;;21.90;35.40;;;;;;5014528;28;19925;-58
2023/12/17 02:38:03;;;;;;;;;;;21.90;35.30;;;;;;5014631;28;19925;-57
2023/12/17 02:40:30;;;;;;;;;;;21.90;35.30;;;;;;5014351;28;19926;-58
2023/12/17 02:42:57;;;;;;;;;;;21.90;35.30;;;;;;5014392;28;20287;-58
2023/12/17 02:45:24;;;;;;;;;;;21.90;35.30;;;;;;5014770;28;20100;-58
2023/12/17 02:47:51;;;;;;;;;;;21.90;35.30;;;;;;5014416;28;19932;-58
2023/12/17 02:50:19;;;;;;;;;;;21.90;35.30;;;;;;5014479;28;19925;-58
2023/12/17 02:52:46;;;;;;;;;;;21.90;35.30;;;;;;5024301;28;20286;-58
2023/12/17 02:55:13;;;;;;;;;;;21.90;35.30;;;;;;5033992;28;19932;-58
2023/12/17 02:57:40;;;;;;;;;;;21.90;35.30;;;;;;5033719;28;19988;-58
2023/12/17 03:00:08;;;;;;;;;;;21.90;35.30;;;;;;5032891;28;19937;-58
2023/12/17 03:02:35;;;;;;;;;;;21.90;35.30;;;;;;5033469;28;20448;-58
2023/12/17 03:05:02;;;;;;;;;;;21.90;35.30;;;;;;5033696;28;19987;-58
2023/12/17 03:07:29;;;;;;;;;;;21.90;35.30;;;;;;5033818;28;19926;-59
2023/12/17 03:09:56;;;;;;;;;;;21.90;35.30;;;;;;5033679;28;20394;-57
2023/12/17 03:12:23;;;;;;;;;;;21.90;35.30;;;;;;5033779;28;19925;-57
2023/12/17 03:14:50;;;;;;;;;;;21.90;35.30;;;;;;5033637;28;19932;-57
2023/12/17 03:17:17;;;;;;;;;;;21.90;35.30;;;;;;5033947;28;20349;-58
2023/12/17 03:19:44;;;;;;;;;;;21.90;35.30;;;;;;5033530;28;20039;-57
2023/12/17 03:22:11;;;;;;;;;;;21.80;35.20;;;;;;5033313;28;20338;-58
2023/12/17 03:24:38;;;;;;;;;;;21.80;35.20;;;;;;5033485;28;19925;-58
2023/12/17 03:27:05;;;;;;;;;;;21.80;35.30;;;;;;5033647;28;19925;-57
2023/12/17 03:29:32;;;;;;;;;;;21.80;35.30;;;;;;5033372;28;19925;-58
2023/12/17 03:32:02;;;;;;;;;;;21.80;35.30;;;;;;5033173;28;20496;-57
2023/12/17 03:34:29;;;;;;;;;;;21.80;35.30;;;;;;5033300;28;19925;-57
2023/12/17 03:36:57;;;;;;;;;;;21.80;35.30;;;;;;5033800;28;19929;-58
2023/12/17 03:39:24;;;;;;;;;;;21.80;35.30;;;;;;5033705;28;20351;-58
2023/12/17 03:41:51;;;;;;;;;;;21.80;35.20;;;;;;5033346;28;19925;-57
2023/12/17 03:44:18;;;;;;;;;;;21.80;35.30;;;;;;5033611;28;19929;-56
2023/12/17 03:46:45;;;;;;;;;;;21.80;35.30;;;;;;5033584;28;19964;-58
2023/12/17 03:49:11;;;;;;;;;;;21.80;35.20;;;;;;5015628;28;20448;-58
2023/12/17 03:51:39;;;;;;;;;;;21.80;35.20;;;;;;5033449;28;19948;-57
2023/12/17 03:54:06;;;;;;;;;;;21.80;35.20;;;;;;5033131;28;20339;-58
2023/12/17 03:56:33;;;;;;;;;;;21.80;35.20;;;;;;5033061;28;19932;-58
2023/12/17 03:59:00;;;;;;;;;;;21.80;35.20;;;;;;5033066;28;19975;-58
2023/12/17 04:01:27;;;;;;;;;;;21.80;35.20;;;;;;5033080;28;20390;-58
2023/12/17 04:03:54;;;;;;;;;;;21.80;35.20;;;;;;5033139;28;19925;-58
2023/12/17 04:06:21;;;;;;;;;;;21.80;35.30;;;;;;5033304;28;19925;-57
2023/12/17 04:08:52;;;;;;;;;;;21.80;35.20;;;;;;5032845;28;20460;-57
2023/12/17 04:11:21;;;;;;;;;;;21.80;35.20;;;;;;5033446;28;19931;-57
2023/12/17 04:13:48;;;;;;;;;;;21.80;35.20;;;;;;5037303;28;20015;-58
2023/12/17 04:16:15;;;;;;;;;;;21.80;35.20;;;;;;5037013;28;20383;-58
2023/12/17 04:18:42;;;;;;;;;;;21.80;35.20;;;;;;5036591;28;19925;-58
2023/12/17 04:21:09;;;;;;;;;;;21.80;35.20;;;;;;5037105;28;19925;-57
2023/12/17 04:23:36;;;;;;;;;;;21.80;35.20;;;;;;5036420;28;19925;-58
2023/12/17 04:26:03;;;;;;;;;;;21.80;35.20;;;;;;5037003;28;19971;-58
2023/12/17 04:28:31;;;;;;;;;;;21.70;35.20;;;;;;5036892;28;20016;-58
2023/12/17 04:30:58;;;;;;;;;;;21.80;35.30;;;;;;5036508;28;19933;-58
2023/12/17 04:33:24;;;;;;;;;;;21.70;35.20;;;;;;5036353;28;20456;-58
2023/12/17 04:35:52;;;;;;;;;;;21.70;35.20;;;;;;5035158;28;19925;-58
2023/12/17 04:38:19;;;;;;;;;;;21.70;35.20;;;;;;5016960;28;19932;-57
2023/12/17 04:40:46;;;;;;;;;;;21.80;35.00;;;;;;5017132;28;19925;-57
2023/12/17 04:43:13;;;;;;;;;;;21.80;34.60;;;;;;5016419;28;19926;-58
2023/12/17 04:45:40;;;;;;;;;;;21.90;34.30;;;;;;5016583;28;20434;-58
2023/12/17 04:48:07;;;;;;;;;;;22.00;33.90;;;;;;5016359;28;19930;-58
2023/12/17 04:50:34;;;;;;;;;;;22.00;33.70;;;;;;5016379;28;20351;-62
2023/12/17 04:53:01;;;;;;;;;;;22.10;33.60;;;;;;5016547;28;19932;-57
2023/12/17 04:55:28;;;;;;;;;;;22.10;33.50;;;;;;5016561;28;19964;-57
2023/12/17 04:57:55;;;;;;;;;;;22.10;33.40;;;;;;5016104;28;20410;-57
2023/12/17 05:00:22;;;;;;;;;;;22.10;33.30;;;;;;5016655;28;19972;-57
2023/12/17 05:02:49;;;;;;;;;;;22.20;33.30;;;;;;5016255;28;19932;-57
2023/12/17 05:05:16;;;;;;;;;;;22.20;33.20;;;;;;5016197;28;20443;-57
2023/12/17 05:07:45;;;;;;;;;;;22.20;33.10;;;;;;5016034;28;19933;-57
2023/12/17 05:10:12;;;;;;;;;;;22.30;33.00;;;;;;5016370;28;19932;-58
2023/12/17 05:12:38;;;;;;;;;;;22.40;33.00;;;;;;5016097;28;20299;-57
2023/12/17 05:15:06;;;;;;;;;;;22.40;32.90;;;;;;5016407;28;19972;-57
2023/12/17 05:17:33;;;;;;;;;;;22.40;32.80;;;;;;5016342;28;20339;-58
2023/12/17 05:20:00;;;;;;;;;;;22.50;32.80;;;;;;5016181;28;19926;-58
2023/12/17 05:22:27;;;;;;;;;;;22.50;32.70;;;;;;4998454;28;19926;-57
2023/12/17 05:24:54;;;;;;;;;;;22.60;32.60;;;;;;5016018;28;19932;-58
2023/12/17 05:27:21;;;;;;;;;;;22.60;32.50;;;;;;5018393;28;19971;-58
2023/12/17 05:29:48;;;;;;;;;;;22.70;32.40;;;;;;5035599;28;20362;-57
2023/12/17 05:32:15;;;;;;;;;;;22.70;32.30;;;;;;5035767;28;19925;-57
2023/12/17 05:34:42;;;;;;;;;;;22.80;32.30;;;;;;5035344;28;19925;-57
2023/12/17 05:37:09;;;;;;;;;;;22.80;32.20;;;;;;5035358;28;19979;-57
2023/12/17 05:39:36;;;;;;;;;;;22.80;32.00;;;;;;5035342;28;19972;-57
2023/12/17 05:42:03;;;;;;;;;;;22.90;32.00;;;;;;5035330;28;20459;-58
2023/12/17 05:44:30;;;;;;;;;;;23.00;31.90;;;;;;5034979;28;20445;-57
2023/12/17 05:46:57;;;;;;;;;;;23.00;31.80;;;;;;5035223;28;19983;-58
2023/12/17 05:49:24;;;;;;;;;;;23.10;31.80;;;;;;5035353;28;19962;-57
2023/12/17 05:51:53;;;;;;;;;;;23.10;31.70;;;;;;5035033;28;19927;-57
2023/12/17 05:54:20;;;;;;;;;;;23.20;31.60;;;;;;5034930;28;20379;-57
2023/12/17 05:56:47;;;;;;;;;;;23.20;31.50;;;;;;5035271;28;19925;-57
2023/12/17 05:59:14;;;;;;;;;;;23.30;31.50;;;;;;5034933;28;20295;-57
2023/12/17 06:01:41;;;;;;;;;;;23.30;31.40;;;;;;5035274;28;19925;-57
2023/12/17 06:04:08;;;;;;;;;;;23.40;31.30;;;;;;5017329;28;19968;-58
2023/12/17 06:06:35;;;;;;;;;;;23.40;31.30;;;;;;5034768;28;19925;-57
2023/12/17 06:09:02;;;;;;;;;;;23.50;31.20;;;;;;5034692;28;20389;-57
2023/12/17 06:11:29;;;;;;;;;;;23.50;31.10;;;;;;5034618;28;19926;-57
2023/12/17 06:13:56;;;;;;;;;;;23.50;31.10;;;;;;5034546;28;19944;-58
2023/12/17 06:16:23;;;;;;;;;;;23.60;31.10;;;;;;5034880;28;20011;-57
2023/12/17 06:18:51;;;;;;;;;;;23.60;31.00;;;;;;5034683;28;19968;-58
2023/12/17 06:21:25;;;;;;;;;;;23.60;30.90;;;;;;5034753;28;19929;-58
2023/12/17 06:23:57;;;;;;;;;;;23.70;30.90;;;;;;5034074;28;19926;-58
2023/12/17 06:26:25;;;;;;;;;;;23.70;30.80;;;;;;5034764;28;19965;-57
2023/12/17 06:28:52;;;;;;;;;;;23.70;30.80;;;;;;5034552;28;19925;-57
2023/12/17 06:31:19;;;;;;;;;;;23.80;30.70;;;;;;5034365;28;19979;-57
2023/12/17 06:33:47;;;;;;;;;;;23.80;30.70;;;;;;5016648;28;20405;-58
2023/12/17 06:36:15;;;;;;;;;;;23.80;30.60;;;;;;5034707;28;19929;-57
2023/12/17 06:38:42;;;;;;;;;;;23.80;30.60;;;;;;5034145;28;19929;-57
2023/12/17 06:41:08;;;;;;;;;;;23.90;30.50;;;;;;5034562;28;19929;-57
2023/12/17 06:43:39;;;;;;;;;;;23.90;30.50;;;;;;5034091;28;19926;-57
2023/12/17 06:46:07;;;;;;;;;;;23.90;30.40;;;;;;5033996;28;19925;-59
2023/12/17 06:48:34;;;;;;;;;;;23.90;30.30;;;;;;5033937;28;20389;-58
2023/12/17 06:51:02;;;;;;;;;;;23.90;30.30;;;;;;5034079;28;19932;-57
2023/12/17 06:53:29;;;;;;;;;;;24.00;30.30;;;;;;5034172;28;19929;-58
2023/12/17 06:55:56;;;;;;;;;;;24.00;30.20;;;;;;5034074;28;19925;-57
2023/12/17 06:58:23;;;;;;;;;;;24.00;30.10;;;;;;5033918;28;19972;-57
2023/12/17 07:00:50;;;;;;;;;;;24.10;30.10;;;;;;5023920;28;19925;-57
2023/12/17 07:03:18;;;;;;;;;;;24.10;30.10;;;;;;5013342;28;19926;-57
2023/12/17 07:05:45;;;;;;;;;;;24.10;30.00;;;;;;5013972;28;20019;-57
2023/12/17 07:08:13;;;;;;;;;;;24.20;30.00;;;;;;5013657;28;19926;-57
2023/12/17 07:10:40;;;;;;;;;;;24.20;30.00;;;;;;5013775;28;20012;-57
2023/12/17 07:13:07;;;;;;;;;;;24.20;30.00;;;;;;5014238;28;19965;-57
2023/12/17 07:15:34;;;;;;;;;;;24.20;30.00;;;;;;5014164;28;20290;-57
2023/12/17 07:18:01;;;;;;;;;;;24.20;30.00;;;;;;5013923;28;19983;-58
2023/12/17 07:20:28;;;;;;;;;;;24.20;30.00;;;;;;5013959;28;19976;-57
2023/12/17 07:22:55;;;;;;;;;;;24.30;30.00;;;;;;5013630;28;19972;-57
2023/12/17 07:25:22;;;;;;;;;;;24.20;30.00;;;;;;5013415;28;19980;-57
2023/12/17 07:27:49;;;;;;;;;;;24.30;30.00;;;;;;5013929;28;19960;-57
2023/12/17 07:30:19;;;;;;;;;;;24.30;30.00;;;;;;5013894;28;19936;-58
2023/12/17 07:32:46;;;;;;;;;;;24.30;30.00;;;;;;4980145;28;19972;-57
2023/12/17 07:35:14;;;;;;;;;;;24.30;29.90;;;;;;5013731;28;19926;-58
2023/12/17 07:37:41;;;;;;;;;;;24.30;29.90;;;;;;5013446;28;20375;-57
2023/12/17 07:40:09;;;;;;;;;;;24.30;29.80;;;;;;5013909;28;20012;-58
2023/12/17 07:42:36;;;;;;;;;;;24.40;29.90;;;;;;4996212;28;19971;-57
2023/12/17 07:45:04;;;;;;;;;;;24.40;29.80;;;;;;5013592;28;19930;-58
2023/12/17 07:47:32;;;;;;;;;;;24.40;29.80;;;;;;5018569;28;20031;-57
2023/12/17 07:50:00;;;;;;;;;;;24.40;29.80;;;;;;5020042;28;19925;-58
2023/12/17 07:52:27;;;;;;;;;;;24.50;29.80;;;;;;5019854;28;19930;-58
2023/12/17 07:54:54;;;;;;;;;;;24.50;29.70;;;;;;5019941;28;19925;-58
2023/12/17 07:57:21;;;;;;;;;;;24.60;29.70;;;;;;5020100;28;20331;-58
2023/12/17 07:59:48;;;;;;;;;;;24.60;29.70;;;;;;5020092;28;20012;-58
2023/12/17 08:02:15;;;;;;;;;;;24.60;29.70;;;;;;5020175;28;20338;-58
2023/12/17 08:04:43;;;;;;;;;;;24.70;29.60;;;;;;5019651;28;20358;-58
2023/12/17 08:07:11;;;;;;;;;;;24.70;29.60;;;;;;5020198;28;20013;-58
2023/12/17 08:09:39;;;;;;;;;;;24.70;29.60;;;;;;5019817;28;19925;-59
2023/12/17 08:12:06;;;;;;;;;;;24.70;29.50;;;;;;5019955;28;19932;-58
2023/12/17 08:14:33;;;;;;;;;;;24.80;29.60;;;;;;5019624;28;19925;-58
2023/12/17 08:17:00;;;;;;;;;;;24.80;29.50;;;;;;5020048;28;20298;-58
2023/12/17 08:19:27;;;;;;;;;;;24.90;29.50;;;;;;5018824;28;19932;-58
2023/12/17 08:21:58;;;;;;;;;;;24.90;29.50;;;;;;5018878;28;20372;-58
2023/12/17 08:24:25;;;;;;;;;;;24.90;29.50;;;;;;5019499;28;20392;-58
2023/12/17 08:26:54;;;;;;;;;;;25.00;29.50;;;;;;5020100;28;19975;-57
2023/12/17 08:29:21;;;;;;;;;;;24.90;29.50;;;;;;5019845;28;20299;-58
2023/12/17 08:31:48;;;;;;;;;;;24.90;29.50;;;;;;5020108;28;20459;-57
2023/12/17 08:34:16;;;;;;;;;;;24.90;29.60;;;;;;5019507;28;19937;-57
2023/12/17 08:36:43;;;;;;;;;;;25.00;29.60;;;;;;5019687;28;19926;-57
2023/12/17 08:39:14;;;;;;;;;;;25.00;29.60;;;;;;5019871;28;20359;-58
2023/12/17 08:41:41;;;;;;;;;;;25.00;29.60;;;;;;5019951;28;19930;-58
2023/12/17 08:44:08;;;;;;;;;;;25.00;29.60;;;;;;5019280;28;19941;-58
2023/12/17 08:46:35;;;;;;;;;;;25.00;29.60;;;;;;5019419;28;19980;-58
2023/12/17 08:49:03;;;;;;;;;;;25.10;29.60;;;;;;5019484;28;20019;-58
2023/12/17 08:51:30;;;;;;;;;;;25.10;29.50;;;;;;5002264;28;19976;-58
2023/12/17 08:53:57;;;;;;;;;;;25.10;29.50;;;;;;5019318;28;19926;-58
2023/12/17 08:56:24;;;;;;;;;;;25.10;29.50;;;;;;5020008;28;19925;-59
2023/12/17 08:58:51;;;;;;;;;;;25.20;29.50;;;;;;5017194;28;20029;-58
2023/12/17 09:01:18;;;;;;;;;;;25.20;29.50;;;;;;5016792;28;20008;-58
2023/12/17 09:03:46;;;;;;;;;;;25.20;29.50;;;;;;5016096;28;19925;-58
2023/12/17 09:06:13;;;;;;;;;;;25.20;29.50;;;;;;5015996;28;19926;-58
2023/12/17 09:08:40;;;;;;;;;;;25.30;29.50;;;;;;5016568;28;19936;-58
2023/12/17 09:11:07;;;;;;;;;;;25.30;29.50;;;;;;5016178;28;20419;-58
2023/12/17 09:13:34;;;;;;;;;;;25.30;29.40;;;;;;5016067;28;19969;-58
2023/12/17 09:16:01;;;;;;;;;;;25.40;29.40;;;;;;5030705;28;20011;-58
2023/12/17 09:18:28;;;;;;;;;;;25.40;29.40;;;;;;5018027;28;19925;-59
2023/12/17 09:20:55;;;;;;;;;;;25.40;29.40;;;;;;5035871;28;19972;-58
2023/12/17 09:23:22;;;;;;;;;;;25.40;29.40;;;;;;5035689;28;19925;-58
2023/12/17 09:25:50;;;;;;;;;;;25.40;29.40;;;;;;5035673;28;20337;-58
2023/12/17 09:28:17;;;;;;;;;;;25.50;29.50;;;;;;5035522;28;20449;-58
2023/12/17 09:30:44;;;;;;;;;;;25.50;29.50;;;;;;5035857;28;19979;-58
2023/12/17 09:33:11;;;;;;;;;;;25.60;29.50;;;;;;5035315;28;19925;-58
2023/12/17 09:35:39;;;;;;;;;;;25.60;29.50;;;;;;5035564;28;19929;-58
2023/12/17 09:38:06;;;;;;;;;;;25.60;29.50;;;;;;5025524;28;19926;-58
2023/12/17 09:40:38;;;;;;;;;;;25.60;29.50;;;;;;5015992;28;19960;-58
2023/12/17 09:43:07;;;;;;;;;;;25.70;29.40;;;;;;5013996;28;20013;-58
2023/12/17 09:45:34;;;;;;;;;;;25.70;29.40;;;;;;5002697;28;20390;-56
2023/12/17 09:48:01;;;;;;;;;;;25.70;29.50;;;;;;5005013;28;19932;-57
2023/12/17 09:50:29;;;;;;;;;;;25.80;29.60;;;;;;5024857;28;19926;-56
2023/12/17 09:52:56;;;;;;;;;;;25.80;29.40;;;;;;5011926;28;19932;-59
2023/12/17 09:55:23;;;;;;;;;;;25.80;29.30;;;;;;5002210;28;19930;-57
2023/12/17 09:57:50;;;;;;;;;;;25.80;29.40;;;;;;5013631;28;19929;-57
2023/12/17 10:00:17;;;;;;;;;;;25.80;29.40;;;;;;4985109;28;19934;-57
2023/12/17 10:02:44;;;;;;;;;;;25.80;29.40;;;;;;5010754;28;19926;-58
2023/12/17 10:05:11;;;;;;;;;;;25.80;29.30;;;;;;5000118;28;20012;-62
2023/12/17 10:07:38;;;;;;;;;;;25.80;29.30;;;;;;4995419;28;19932;-59
2023/12/17 10:10:07;;;;;;;;;;;25.80;29.30;;;;;;5006566;28;19925;-64
2023/12/17 10:12:35;;;;;;;;;;;25.90;29.30;;;;;;4995803;28;20004;-58
2023/12/17 10:15:03;;;;;;;;;;;25.80;29.30;;;;;;5006065;28;19926;-59
2023/12/17 10:17:30;;;;;;;;;;;25.90;29.30;;;;;;5015254;28;20134;-59
2023/12/17 10:19:57;;;;;;;;;;;25.90;29.30;;;;;;5014949;28;19925;-66
2023/12/17 10:22:24;;;;;;;;;;;25.90;29.20;;;;;;5015282;28;19971;-68
2023/12/17 10:24:51;;;;;;;;;;;25.90;29.20;;;;;;5014910;28;19929;-64
2023/12/17 10:27:22;;;;;;;;;;;25.90;29.20;;;;;;5014663;28;19932;-59
2023/12/17 10:29:50;;;;;;;;;;;25.90;29.20;;;;;;5014679;28;20384;-63
2023/12/17 10:32:22;;;;;;;;;;;25.90;29.20;;;;;;5015065;28;20267;-59
2023/12/17 10:34:52;;;;;;;;;;;25.90;29.20;;;;;;5014845;28;19925;-60
2023/12/17 10:37:21;;;;;;;;;;;25.90;29.20;;;;;;5014505;28;19933;-58
2023/12/17 10:39:51;;;;;;;;;;;26.00;29.20;;;;;;5008236;28;20443;-61
2023/12/17 10:42:19;;;;;;;;;;;26.00;29.20;;;;;;5003311;28;20272;-62
2023/12/17 10:44:48;;;;;;;;;;;26.00;29.20;;;;;;5014541;28;20012;-61
2023/12/17 10:47:18;;;;;;;;;;;26.00;29.20;;;;;;5000256;28;19932;-61
2023/12/17 10:49:46;;;;;;;;;;;26.00;29.10;;;;;;4977593;28;19980;-61
2023/12/17 10:52:13;;;;;;;;;;;26.10;29.20;;;;;;4977320;28;19926;-55
2023/12/17 10:54:40;;;;;;;;;;;26.10;29.20;;;;;;5003261;28;20358;-57
2023/12/17 10:57:19;;;;;;;;;;;26.10;29.20;;;;;;5014621;28;19925;-57
2023/12/17 10:59:48;;;;;;;;;;;26.10;29.20;;;;;;5031004;28;20401;-58
2023/12/17 11:02:17;;;;;;;;;;;26.10;29.10;;;;;;5034043;28;19929;-58
2023/12/17 11:04:45;;;;;;;;;;;26.10;29.10;;;;;;5033858;28;20290;-58
2023/12/17 11:07:17;;;;;;;;;;;26.10;29.10;;;;;;5019930;28;20028;-57
2023/12/17 11:10:00;;;;;;;;;;;26.10;29.10;;;;;;5013814;28;19930;-57
2023/12/17 11:12:27;;;;;;;;;;;26.10;29.10;;;;;;5013157;28;20020;-57
2023/12/17 11:14:58;;;;;;;;;;;26.10;29.10;;;;;;4994160;28;19930;-55
2023/12/17 11:17:26;;;;;;;;;;;26.20;29.20;;;;;;4994711;28;19925;-59
2023/12/17 11:19:56;;;;;;;;;;;26.20;29.20;;;;;;4994511;28;19964;-59
2023/12/17 11:22:23;;;;;;;;;;;26.20;29.20;;;;;;4993388;28;20438;-55
2023/12/17 11:24:53;;;;;;;;;;;26.20;29.10;;;;;;4997342;28;19933;-54
2023/12/17 11:27:22;;;;;;;;;;;26.20;29.10;;;;;;5013891;28;19929;-54
2023/12/17 11:29:52;;;;;;;;;;;26.30;29.20;;;;;;5012973;28;21617;-57
2023/12/17 11:32:20;;;;;;;;;;;26.20;29.10;;;;;;5013947;28;19972;-56
2023/12/17 11:34:50;;;;;;;;;;;26.30;29.10;;;;;;5013266;28;19925;-55
2023/12/17 11:37:19;;;;;;;;;;;26.30;29.10;;;;;;5006313;28;19932;-52
2023/12/17 11:39:47;;;;;;;;;;;26.30;29.10;;;;;;4998612;28;20283;-55
2023/12/17 11:42:14;;;;;;;;;;;26.30;29.10;;;;;;5000402;28;19926;-54
2023/12/17 11:44:45;;;;;;;;;;;26.30;29.10;;;;;;4986928;28;19949;-53
2023/12/17 11:47:12;;;;;;;;;;;26.30;29.10;;;;;;5008692;28;19925;-56
2023/12/17 11:49:40;;;;;;;;;;;26.40;29.10;;;;;;5000540;28;19925;-55
2023/12/17 11:52:14;;;;;;;;;;;26.40;29.00;;;;;;5004888;28;19926;-56
2023/12/17 11:54:45;;;;;;;;;;;26.40;29.10;;;;;;4993745;28;19926;-56
2023/12/17 11:57:23;;;;;;;;;;;26.40;29.00;;;;;;4994062;28;19933;-56
2023/12/17 11:59:50;;;;;;;;;;;26.40;29.00;;;;;;4993952;28;19932;-55
2023/12/17 12:02:18;;;;;;;;;;;26.40;29.00;;;;;;4993870;28;19930;-55
2023/12/17 12:04:45;;;;;;;;;;;26.40;29.00;;;;;;4993899;28;19926;-56
2023/12/17 12:07:17;;;;;;;;;;;26.40;29.30;;;;;;4993896;28;20024;-57
2023/12/17 12:09:45;;;;;;;;;;;26.40;29.50;;;;;;4993568;28;20362;-58
2023/12/17 12:12:16;;;;;;;;;;;26.50;29.60;;;;;;4993932;28;20016;-57
2023/12/17 12:14:45;;;;;;;;;;;26.50;29.20;;;;;;4993713;28;20409;-57
2023/12/17 12:17:32;;;;;;;;;;;26.50;29.10;;;;;;4993891;28;20406;-57
2023/12/17 12:19:59;;;;;;;;;;;26.50;29.00;;;;;;4993533;28;20053;-57
2023/12/17 12:22:27;;;;;;;;;;;26.60;29.10;;;;;;4993692;28;20020;-57
2023/12/17 12:24:55;;;;;;;;;;;26.60;29.00;;;;;;4993518;28;19926;-57
2023/12/17 12:27:23;;;;;;;;;;;26.60;29.00;;;;;;4993798;28;20291;-57
2023/12/17 12:29:51;;;;;;;;;;;26.60;29.00;;;;;;4998365;28;20268;-56
2023/12/17 12:32:27;;;;;;;;;;;26.70;29.00;;;;;;5013193;28;19925;-57
2023/12/17 12:34:55;;;;;;;;;;;26.70;29.00;;;;;;5017022;28;19988;-57
2023/12/17 12:37:32;;;;;;;;;;;26.70;29.00;;;;;;5016845;28;19925;-57
2023/12/17 12:40:00;;;;;;;;;;;26.80;29.10;;;;;;5016971;28;19940;-57
2023/12/17 12:42:31;;;;;;;;;;;26.80;29.10;;;;;;5017286;28;20337;-57
2023/12/17 12:44:58;;;;;;;;;;;26.80;29.00;;;;;;5016913;28;19925;-57
2023/12/17 12:47:25;;;;;;;;;;;26.80;29.00;;;;;;5016757;28;20398;-57
2023/12/17 12:49:52;;;;;;;;;;;26.80;29.00;;;;;;5016745;28;19926;-57
2023/12/17 12:52:21;;;;;;;;;;;26.80;29.00;;;;;;5016736;28;19932;-57
2023/12/17 12:54:49;;;;;;;;;;;26.80;29.00;;;;;;5016419;28;20012;-57
2023/12/17 12:57:16;;;;;;;;;;;26.80;29.00;;;;;;5016971;28;20004;-57
2023/12/17 12:59:44;;;;;;;;;;;26.70;28.90;;;;;;5016285;28;19932;-57
2023/12/17 13:02:11;;;;;;;;;;;26.70;28.90;;;;;;5016992;28;20196;-57
2023/12/17 13:04:38;;;;;;;;;;;26.70;28.90;;;;;;5014509;28;20422;-57
2023/12/17 13:07:05;;;;;;;;;;;26.70;29.00;;;;;;5016057;28;20012;-58
2023/12/17 13:09:33;;;;;;;;;;;26.70;29.00;;;;;;5016316;28;20318;-56
2023/12/17 13:12:00;;;;;;;;;;;26.60;29.00;;;;;;5016283;28;19932;-56
2023/12/17 13:14:30;;;;;;;;;;;26.60;29.00;;;;;;5016124;28;19932;-57
2023/12/17 13:16:57;;;;;;;;;;;26.50;29.10;;;;;;5016112;28;20379;-57
2023/12/17 13:19:24;;;;;;;;;;;26.50;29.10;;;;;;5016199;28;20370;-58
2023/12/17 13:21:52;;;;;;;;;;;26.50;29.10;;;;;;5016159;28;20000;-57
2023/12/17 13:24:20;;;;;;;;;;;26.50;29.10;;;;;;5015648;28;19932;-56
2023/12/17 13:26:47;;;;;;;;;;;26.40;29.10;;;;;;5016161;28;19948;-57
2023/12/17 13:29:14;;;;;;;;;;;26.40;29.10;;;;;;5015755;28;19975;-57
2023/12/17 13:31:42;;;;;;;;;;;26.40;29.10;;;;;;5015897;28;19925;-57
2023/12/17 13:34:09;;;;;;;;;;;26.40;29.10;;;;;;5034684;28;19929;-59
2023/12/17 13:36:36;;;;;;;;;;;26.40;29.10;;;;;;5035910;28;19925;-58
2023/12/17 13:39:04;;;;;;;;;;;26.30;29.10;;;;;;5033273;28;19940;-57
2023/12/17 13:41:31;;;;;;;;;;;26.30;29.10;;;;;;5015993;28;19925;-57
2023/12/17 13:44:10;;;;;;;;;;;26.30;29.10;;;;;;5014901;28;20020;-59
2023/12/17 13:46:37;;;;;;;;;;;26.30;29.20;;;;;;5015653;28;20012;-58
2023/12/17 13:49:04;;;;;;;;;;;26.30;29.20;;;;;;5015476;28;19925;-57
2023/12/17 13:51:32;;;;;;;;;;;26.30;29.20;;;;;;5015258;28;19941;-57
2023/12/17 13:53:59;;;;;;;;;;;26.20;29.10;;;;;;5015327;28;19972;-58
2023/12/17 13:56:26;;;;;;;;;;;26.20;29.10;;;;;;5015299;28;19932;-58
2023/12/17 13:59:02;;;;;;;;;;;26.20;29.10;;;;;;5015283;28;19925;-58
2023/12/17 14:01:29;;;;;;;;;;;26.20;29.10;;;;;;5015505;28;19983;-58
2023/12/17 14:04:00;;;;;;;;;;;26.20;29.20;;;;;;5015224;28;19926;-58
2023/12/17 14:06:27;;;;;;;;;;;26.20;29.20;;;;;;5014874;28;19933;-59
2023/12/17 14:08:55;;;;;;;;;;;26.10;29.10;;;;;;5015502;28;19925;-59
2023/12/17 14:11:22;;;;;;;;;;;26.10;29.10;;;;;;5014994;28;20394;-58
2023/12/17 14:14:00;;;;;;;;;;;26.20;29.20;;;;;;5015325;28;20338;-58
2023/12/17 14:16:30;;;;;;;;;;;26.20;29.20;;;;;;5015298;28;19968;-59
2023/12/17 14:18:58;;;;;;;;;;;26.10;29.10;;;;;;5015291;28;19925;-58